sensor_id;sensor_type;location;lat;lon;timestamp;P1;P2;P0
73517;PMS5003;61766;60.318;25.044;2023-07-31T00:00:42;8;8;
73517;PMS5003;61766;60.318;25.044;2023-07-31T00:03:08;9;9;
73517;PMS5003;61766;60.318;25.044;2023-07-31T00:05:34;9;9;
73517;PMS5003;61766;60.318;25.044;2023-07-31T00:08:00;8;8;
73517;PMS5003;61766;60.318;25.044;2023-07-31T00:10:25;9;8;
73517;PMS5003;61766;60.318;25.044;2023-07-31T00:12:51;10;9;
73517;PMS5003;61766;60.318;25.044;2023-07-31T00:15:17;9;9;
73517;PMS5003;61766;60.318;25.044;2023-07-31T00:17:42;8;8;
73517;PMS5003;61766;60.318;25.044;2023-07-31T00:20:08;8;8;
73517;PMS5003;61766;60.318;25.044;2023-07-31T00:22:34;10;10;
73517;PMS5003;61766;60.318;25.044;2023-07-31T00:25:00;7;7;
73517;PMS5003;61766;60.318;25.044;2023-07-31T00:27:25;9;9;
73517;PMS5003;61766;60.318;25.044;2023-07-31T00:29:51;10;10;
73517;PMS5003;61766;60.318;25.044;2023-07-31T00:32:17;12;12;
73517;PMS5003;61766;60.318;25.044;2023-07-31T00:34:43;10;10;
73517;PMS5003;61766;60.318;25.044;2023-07-31T00:37:08;10;10;
73517;PMS5003;61766;60.318;25.044;2023-07-31T00:39:34;9;9;
73517;PMS5003;61766;60.318;25.044;2023-07-31T00:42:00;10;10;
73517;PMS5003;61766;60.318;25.044;2023-07-31T00:44:25;12;12;
73517;PMS5003;61766;60.318;25.044;2023-07-31T00:46:51;11;11;
73517;PMS5003;61766;60.318;25.044;2023-07-31T00:49:17;13;11;
73517;PMS5003;61766;60.318;25.044;2023-07-31T00:51:42;10;10;
73517;PMS5003;61766;60.318;25.044;2023-07-31T00:54:08;11;10;
73517;PMS5003;61766;60.318;25.044;2023-07-31T00:56:34;12;11;
73517;PMS5003;61766;60.318;25.044;2023-07-31T00:59:00;10;10;
73517;PMS5003;61766;60.318;25.044;2023-07-31T01:01:25;10;10;
73517;PMS5003;61766;60.318;25.044;2023-07-31T01:03:51;13;12;
73517;PMS5003;61766;60.318;25.044;2023-07-31T01:06:18;10;10;
73517;PMS5003;61766;60.318;25.044;2023-07-31T01:08:44;14;14;
73517;PMS5003;61766;60.318;25.044;2023-07-31T01:11:09;12;11;
73517;PMS5003;61766;60.318;25.044;2023-07-31T01:13:34;13;12;
73517;PMS5003;61766;60.318;25.044;2023-07-31T01:16:00;11;10;
73517;PMS5003;61766;60.318;25.044;2023-07-31T01:18:25;9;9;
73517;PMS5003;61766;60.318;25.044;2023-07-31T01:20:53;12;12;
73517;PMS5003;61766;60.318;25.044;2023-07-31T01:23:30;12;12;
73517;PMS5003;61766;60.318;25.044;2023-07-31T01:25:51;12;12;
73517;PMS5003;61766;60.318;25.044;2023-07-31T01:28:09;10;10;
73517;PMS5003;61766;60.318;25.044;2023-07-31T01:30:35;11;11;
73517;PMS5003;61766;60.318;25.044;2023-07-31T01:33:00;11;11;
73517;PMS5003;61766;60.318;25.044;2023-07-31T01:35:26;12;11;
73517;PMS5003;61766;60.318;25.044;2023-07-31T01:37:52;12;10;
73517;PMS5003;61766;60.318;25.044;2023-07-31T01:40:17;13;13;
73517;PMS5003;61766;60.318;25.044;2023-07-31T01:42:43;11;11;
73517;PMS5003;61766;60.318;25.044;2023-07-31T01:45:08;14;14;
73517;PMS5003;61766;60.318;25.044;2023-07-31T01:47:33;9;9;
73517;PMS5003;61766;60.318;25.044;2023-07-31T01:49:59;12;12;
73517;PMS5003;61766;60.318;25.044;2023-07-31T01:52:25;11;11;
73517;PMS5003;61766;60.318;25.044;2023-07-31T01:54:50;10;10;
73517;PMS5003;61766;60.318;25.044;2023-07-31T01:57:16;11;11;
73517;PMS5003;61766;60.318;25.044;2023-07-31T01:59:42;8;7;
73517;PMS5003;61766;60.318;25.044;2023-07-31T02:02:07;9;9;
73517;PMS5003;61766;60.318;25.044;2023-07-31T02:04:33;9;9;
73517;PMS5003;61766;60.318;25.044;2023-07-31T02:06:59;10;9;
73517;PMS5003;61766;60.318;25.044;2023-07-31T02:09:25;8;8;
73517;PMS5003;61766;60.318;25.044;2023-07-31T02:11:50;10;10;
73517;PMS5003;61766;60.318;25.044;2023-07-31T02:14:16;11;9;
73517;PMS5003;61766;60.318;25.044;2023-07-31T02:16:42;9;9;
73517;PMS5003;61766;60.318;25.044;2023-07-31T02:19:07;9;9;
73517;PMS5003;61766;60.318;25.044;2023-07-31T02:21:33;8;8;
73517;PMS5003;61766;60.318;25.044;2023-07-31T02:23:59;6;6;
73517;PMS5003;61766;60.318;25.044;2023-07-31T02:26:24;9;9;
73517;PMS5003;61766;60.318;25.044;2023-07-31T02:28:50;9;8;
73517;PMS5003;61766;60.318;25.044;2023-07-31T02:31:16;9;9;
73517;PMS5003;61766;60.318;25.044;2023-07-31T02:33:42;9;7;
73517;PMS5003;61766;60.318;25.044;2023-07-31T02:36:07;8;8;
73517;PMS5003;61766;60.318;25.044;2023-07-31T02:38:33;9;9;
73517;PMS5003;61766;60.318;25.044;2023-07-31T02:40:58;8;8;
73517;PMS5003;61766;60.318;25.044;2023-07-31T02:43:24;9;8;
73517;PMS5003;61766;60.318;25.044;2023-07-31T02:45:51;9;9;
73517;PMS5003;61766;60.318;25.044;2023-07-31T02:48:16;7;7;
73517;PMS5003;61766;60.318;25.044;2023-07-31T02:50:41;7;7;
73517;PMS5003;61766;60.318;25.044;2023-07-31T02:53:07;9;9;
73517;PMS5003;61766;60.318;25.044;2023-07-31T02:55:33;8;8;
73517;PMS5003;61766;60.318;25.044;2023-07-31T02:57:58;9;9;
73517;PMS5003;61766;60.318;25.044;2023-07-31T03:00:24;8;8;
73517;PMS5003;61766;60.318;25.044;2023-07-31T03:02:50;8;8;
73517;PMS5003;61766;60.318;25.044;2023-07-31T03:05:16;9;9;
73517;PMS5003;61766;60.318;25.044;2023-07-31T03:07:41;9;9;
73517;PMS5003;61766;60.318;25.044;2023-07-31T03:10:08;10;10;
73517;PMS5003;61766;60.318;25.044;2023-07-31T03:12:33;11;10;
73517;PMS5003;61766;60.318;25.044;2023-07-31T03:14:58;11;11;
73517;PMS5003;61766;60.318;25.044;2023-07-31T03:17:24;11;11;
73517;PMS5003;61766;60.318;25.044;2023-07-31T03:19:50;9;8;
73517;PMS5003;61766;60.318;25.044;2023-07-31T03:22:16;11;11;
73517;PMS5003;61766;60.318;25.044;2023-07-31T03:24:41;12;12;
73517;PMS5003;61766;60.318;25.044;2023-07-31T03:27:06;16;15;
73517;PMS5003;61766;60.318;25.044;2023-07-31T03:29:32;13;13;
73517;PMS5003;61766;60.318;25.044;2023-07-31T03:31:58;11;11;
73517;PMS5003;61766;60.318;25.044;2023-07-31T03:34:24;14;12;
73517;PMS5003;61766;60.318;25.044;2023-07-31T03:36:49;12;12;
73517;PMS5003;61766;60.318;25.044;2023-07-31T03:39:15;13;13;
73517;PMS5003;61766;60.318;25.044;2023-07-31T03:41:41;10;10;
73517;PMS5003;61766;60.318;25.044;2023-07-31T03:44:06;12;12;
73517;PMS5003;61766;60.318;25.044;2023-07-31T03:46:32;12;12;
73517;PMS5003;61766;60.318;25.044;2023-07-31T03:48:58;12;11;
73517;PMS5003;61766;60.318;25.044;2023-07-31T03:51:24;12;12;
73517;PMS5003;61766;60.318;25.044;2023-07-31T03:53:50;9;9;
73517;PMS5003;61766;60.318;25.044;2023-07-31T03:56:15;10;10;
73517;PMS5003;61766;60.318;25.044;2023-07-31T03:58:41;11;11;
73517;PMS5003;61766;60.318;25.044;2023-07-31T04:01:07;8;8;
73517;PMS5003;61766;60.318;25.044;2023-07-31T04:03:33;11;11;
73517;PMS5003;61766;60.318;25.044;2023-07-31T04:05:58;10;10;
73517;PMS5003;61766;60.318;25.044;2023-07-31T04:08:24;12;11;
73517;PMS5003;61766;60.318;25.044;2023-07-31T04:10:50;12;12;
73517;PMS5003;61766;60.318;25.044;2023-07-31T04:13:16;11;11;
73517;PMS5003;61766;60.318;25.044;2023-07-31T04:15:41;10;10;
73517;PMS5003;61766;60.318;25.044;2023-07-31T04:18:07;12;12;
73517;PMS5003;61766;60.318;25.044;2023-07-31T04:20:32;10;10;
73517;PMS5003;61766;60.318;25.044;2023-07-31T04:22:58;9;9;
73517;PMS5003;61766;60.318;25.044;2023-07-31T04:25:24;10;10;
73517;PMS5003;61766;60.318;25.044;2023-07-31T04:27:50;10;10;
73517;PMS5003;61766;60.318;25.044;2023-07-31T04:30:15;12;11;
73517;PMS5003;61766;60.318;25.044;2023-07-31T04:32:41;12;11;
73517;PMS5003;61766;60.318;25.044;2023-07-31T04:35:07;10;10;
73517;PMS5003;61766;60.318;25.044;2023-07-31T04:37:33;10;9;
73517;PMS5003;61766;60.318;25.044;2023-07-31T04:39:58;9;9;
73517;PMS5003;61766;60.318;25.044;2023-07-31T04:42:24;9;9;
73517;PMS5003;61766;60.318;25.044;2023-07-31T04:44:50;8;8;
73517;PMS5003;61766;60.318;25.044;2023-07-31T04:47:16;9;9;
73517;PMS5003;61766;60.318;25.044;2023-07-31T04:49:42;10;9;
73517;PMS5003;61766;60.318;25.044;2023-07-31T04:52:07;8;8;
73517;PMS5003;61766;60.318;25.044;2023-07-31T04:54:33;8;8;
73517;PMS5003;61766;60.318;25.044;2023-07-31T04:56:58;8;8;
73517;PMS5003;61766;60.318;25.044;2023-07-31T04:59:24;9;9;
73517;PMS5003;61766;60.318;25.044;2023-07-31T05:01:50;6;6;
73517;PMS5003;61766;60.318;25.044;2023-07-31T05:04:16;9;9;
73517;PMS5003;61766;60.318;25.044;2023-07-31T05:06:41;8;8;
73517;PMS5003;61766;60.318;25.044;2023-07-31T05:09:07;8;8;
73517;PMS5003;61766;60.318;25.044;2023-07-31T05:11:33;11;11;
73517;PMS5003;61766;60.318;25.044;2023-07-31T05:13:58;8;8;
73517;PMS5003;61766;60.318;25.044;2023-07-31T05:16:24;10;10;
73517;PMS5003;61766;60.318;25.044;2023-07-31T05:18:50;9;9;
73517;PMS5003;61766;60.318;25.044;2023-07-31T05:21:15;8;8;
73517;PMS5003;61766;60.318;25.044;2023-07-31T05:23:41;6;6;
73517;PMS5003;61766;60.318;25.044;2023-07-31T05:26:07;11;11;
73517;PMS5003;61766;60.318;25.044;2023-07-31T05:28:34;8;8;
73517;PMS5003;61766;60.318;25.044;2023-07-31T05:30:59;7;7;
73517;PMS5003;61766;60.318;25.044;2023-07-31T05:33:24;8;7;
73517;PMS5003;61766;60.318;25.044;2023-07-31T05:35:50;6;6;
73517;PMS5003;61766;60.318;25.044;2023-07-31T05:38:15;7;7;
73517;PMS5003;61766;60.318;25.044;2023-07-31T05:40:42;7;7;
73517;PMS5003;61766;60.318;25.044;2023-07-31T05:43:07;10;10;
73517;PMS5003;61766;60.318;25.044;2023-07-31T05:45:33;7;6;
73517;PMS5003;61766;60.318;25.044;2023-07-31T05:47:58;7;7;
73517;PMS5003;61766;60.318;25.044;2023-07-31T05:50:24;7;7;
73517;PMS5003;61766;60.318;25.044;2023-07-31T05:52:50;6;5;
73517;PMS5003;61766;60.318;25.044;2023-07-31T05:55:15;7;7;
73517;PMS5003;61766;60.318;25.044;2023-07-31T05:57:41;9;8;
73517;PMS5003;61766;60.318;25.044;2023-07-31T06:00:07;8;7;
73517;PMS5003;61766;60.318;25.044;2023-07-31T06:02:32;9;9;
73517;PMS5003;61766;60.318;25.044;2023-07-31T06:04:58;8;8;
73517;PMS5003;61766;60.318;25.044;2023-07-31T06:07:24;9;9;
73517;PMS5003;61766;60.318;25.044;2023-07-31T06:09:50;7;7;
73517;PMS5003;61766;60.318;25.044;2023-07-31T06:12:15;10;10;
73517;PMS5003;61766;60.318;25.044;2023-07-31T06:14:41;8;8;
73517;PMS5003;61766;60.318;25.044;2023-07-31T06:17:07;6;6;
73517;PMS5003;61766;60.318;25.044;2023-07-31T06:19:33;7;7;
73517;PMS5003;61766;60.318;25.044;2023-07-31T06:21:58;6;6;
73517;PMS5003;61766;60.318;25.044;2023-07-31T06:24:24;7;7;
73517;PMS5003;61766;60.318;25.044;2023-07-31T06:26:50;8;8;
73517;PMS5003;61766;60.318;25.044;2023-07-31T06:29:16;7;7;
73517;PMS5003;61766;60.318;25.044;2023-07-31T06:31:41;8;8;
73517;PMS5003;61766;60.318;25.044;2023-07-31T06:34:07;10;9;
73517;PMS5003;61766;60.318;25.044;2023-07-31T06:36:33;8;8;
73517;PMS5003;61766;60.318;25.044;2023-07-31T06:38:59;7;7;
73517;PMS5003;61766;60.318;25.044;2023-07-31T06:41:24;11;11;
73517;PMS5003;61766;60.318;25.044;2023-07-31T06:43:50;11;11;
73517;PMS5003;61766;60.318;25.044;2023-07-31T06:46:16;11;11;
73517;PMS5003;61766;60.318;25.044;2023-07-31T06:48:41;10;9;
73517;PMS5003;61766;60.318;25.044;2023-07-31T06:51:07;15;15;
73517;PMS5003;61766;60.318;25.044;2023-07-31T06:53:33;11;11;
73517;PMS5003;61766;60.318;25.044;2023-07-31T06:55:58;11;11;
73517;PMS5003;61766;60.318;25.044;2023-07-31T06:58:24;12;12;
73517;PMS5003;61766;60.318;25.044;2023-07-31T07:00:50;11;10;
73517;PMS5003;61766;60.318;25.044;2023-07-31T07:03:16;12;12;
73517;PMS5003;61766;60.318;25.044;2023-07-31T07:05:41;12;12;
73517;PMS5003;61766;60.318;25.044;2023-07-31T07:08:07;13;13;
73517;PMS5003;61766;60.318;25.044;2023-07-31T07:10:32;13;13;
73517;PMS5003;61766;60.318;25.044;2023-07-31T07:13:10;13;13;
73517;PMS5003;61766;60.318;25.044;2023-07-31T07:15:23;10;10;
73517;PMS5003;61766;60.318;25.044;2023-07-31T07:17:49;12;12;
73517;PMS5003;61766;60.318;25.044;2023-07-31T07:20:15;11;11;
73517;PMS5003;61766;60.318;25.044;2023-07-31T07:22:41;10;9;
73517;PMS5003;61766;60.318;25.044;2023-07-31T07:25:07;10;10;
73517;PMS5003;61766;60.318;25.044;2023-07-31T07:27:32;13;13;
73517;PMS5003;61766;60.318;25.044;2023-07-31T07:29:57;12;12;
73517;PMS5003;61766;60.318;25.044;2023-07-31T07:32:23;11;10;
73517;PMS5003;61766;60.318;25.044;2023-07-31T07:34:49;11;11;
73517;PMS5003;61766;60.318;25.044;2023-07-31T07:37:14;11;11;
73517;PMS5003;61766;60.318;25.044;2023-07-31T07:39:40;13;12;
73517;PMS5003;61766;60.318;25.044;2023-07-31T07:42:06;10;9;
73517;PMS5003;61766;60.318;25.044;2023-07-31T07:44:32;10;10;
73517;PMS5003;61766;60.318;25.044;2023-07-31T07:46:57;12;11;
73517;PMS5003;61766;60.318;25.044;2023-07-31T07:49:23;10;10;
73517;PMS5003;61766;60.318;25.044;2023-07-31T07:51:49;12;11;
73517;PMS5003;61766;60.318;25.044;2023-07-31T07:54:15;8;8;
73517;PMS5003;61766;60.318;25.044;2023-07-31T07:56:40;10;9;
73517;PMS5003;61766;60.318;25.044;2023-07-31T07:59:06;8;8;
73517;PMS5003;61766;60.318;25.044;2023-07-31T08:01:32;21;21;
73517;PMS5003;61766;60.318;25.044;2023-07-31T08:03:57;6;6;
73517;PMS5003;61766;60.318;25.044;2023-07-31T08:06:23;9;9;
73517;PMS5003;61766;60.318;25.044;2023-07-31T08:08:49;6;6;
73517;PMS5003;61766;60.318;25.044;2023-07-31T08:11:15;10;10;
73517;PMS5003;61766;60.318;25.044;2023-07-31T08:13:40;10;10;
73517;PMS5003;61766;60.318;25.044;2023-07-31T08:16:07;9;9;
73517;PMS5003;61766;60.318;25.044;2023-07-31T08:18:32;9;8;
73517;PMS5003;61766;60.318;25.044;2023-07-31T08:20:58;7;7;
73517;PMS5003;61766;60.318;25.044;2023-07-31T08:23:23;7;7;
73517;PMS5003;61766;60.318;25.044;2023-07-31T08:25:49;8;8;
73517;PMS5003;61766;60.318;25.044;2023-07-31T08:28:15;8;8;
73517;PMS5003;61766;60.318;25.044;2023-07-31T08:30:41;7;7;
73517;PMS5003;61766;60.318;25.044;2023-07-31T08:33:06;8;8;
73517;PMS5003;61766;60.318;25.044;2023-07-31T08:35:32;7;7;
73517;PMS5003;61766;60.318;25.044;2023-07-31T08:37:58;7;7;
73517;PMS5003;61766;60.318;25.044;2023-07-31T08:40:23;6;6;
73517;PMS5003;61766;60.318;25.044;2023-07-31T08:42:50;7;7;
73517;PMS5003;61766;60.318;25.044;2023-07-31T08:45:15;8;8;
73517;PMS5003;61766;60.318;25.044;2023-07-31T08:47:40;26;26;
73517;PMS5003;61766;60.318;25.044;2023-07-31T08:50:06;14;14;
73517;PMS5003;61766;60.318;25.044;2023-07-31T08:52:31;7;7;
73517;PMS5003;61766;60.318;25.044;2023-07-31T08:54:57;6;5;
73517;PMS5003;61766;60.318;25.044;2023-07-31T08:57:23;8;7;
73517;PMS5003;61766;60.318;25.044;2023-07-31T08:59:48;7;7;
73517;PMS5003;61766;60.318;25.044;2023-07-31T09:02:14;8;8;
73517;PMS5003;61766;60.318;25.044;2023-07-31T09:04:40;5;5;
73517;PMS5003;61766;60.318;25.044;2023-07-31T09:07:06;7;7;
73517;PMS5003;61766;60.318;25.044;2023-07-31T09:09:32;7;7;
73517;PMS5003;61766;60.318;25.044;2023-07-31T09:11:57;7;7;
73517;PMS5003;61766;60.318;25.044;2023-07-31T09:14:23;7;7;
73517;PMS5003;61766;60.318;25.044;2023-07-31T09:16:52;8;8;
73517;PMS5003;61766;60.318;25.044;2023-07-31T09:19:14;7;7;
73517;PMS5003;61766;60.318;25.044;2023-07-31T09:24:06;8;8;
73517;PMS5003;61766;60.318;25.044;2023-07-31T09:26:32;8;8;
73517;PMS5003;61766;60.318;25.044;2023-07-31T09:28:57;10;10;
73517;PMS5003;61766;60.318;25.044;2023-07-31T09:33:54;7;7;
73517;PMS5003;61766;60.318;25.044;2023-07-31T09:36:14;9;9;
73517;PMS5003;61766;60.318;25.044;2023-07-31T09:38:40;7;7;
73517;PMS5003;61766;60.318;25.044;2023-07-31T09:41:05;11;11;
73517;PMS5003;61766;60.318;25.044;2023-07-31T09:43:31;7;7;
73517;PMS5003;61766;60.318;25.044;2023-07-31T09:45:57;8;8;
73517;PMS5003;61766;60.318;25.044;2023-07-31T09:48:23;8;8;
73517;PMS5003;61766;60.318;25.044;2023-07-31T09:50:48;6;6;
73517;PMS5003;61766;60.318;25.044;2023-07-31T09:53:14;9;9;
73517;PMS5003;61766;60.318;25.044;2023-07-31T09:55:40;5;5;
73517;PMS5003;61766;60.318;25.044;2023-07-31T09:58:06;7;7;
73517;PMS5003;61766;60.318;25.044;2023-07-31T10:00:31;9;9;
73517;PMS5003;61766;60.318;25.044;2023-07-31T10:02:57;8;8;
73517;PMS5003;61766;60.318;25.044;2023-07-31T10:05:22;8;8;
73517;PMS5003;61766;60.318;25.044;2023-07-31T10:07:51;9;9;
73517;PMS5003;61766;60.318;25.044;2023-07-31T10:10:14;9;9;
73517;PMS5003;61766;60.318;25.044;2023-07-31T10:12:40;6;6;
73517;PMS5003;61766;60.318;25.044;2023-07-31T10:15:06;7;7;
73517;PMS5003;61766;60.318;25.044;2023-07-31T10:17:31;8;8;
73517;PMS5003;61766;60.318;25.044;2023-07-31T10:19:57;6;6;
73517;PMS5003;61766;60.318;25.044;2023-07-31T10:22:22;5;5;
73517;PMS5003;61766;60.318;25.044;2023-07-31T10:24:48;6;6;
73517;PMS5003;61766;60.318;25.044;2023-07-31T10:27:14;9;7;
73517;PMS5003;61766;60.318;25.044;2023-07-31T10:29:39;5;5;
73517;PMS5003;61766;60.318;25.044;2023-07-31T10:32:06;7;7;
73517;PMS5003;61766;60.318;25.044;2023-07-31T10:34:31;7;7;
73517;PMS5003;61766;60.318;25.044;2023-07-31T10:41:48;3;3;
73517;PMS5003;61766;60.318;25.044;2023-07-31T10:44:16;4;4;
73517;PMS5003;61766;60.318;25.044;2023-07-31T10:46:39;6;6;
73517;PMS5003;61766;60.318;25.044;2023-07-31T10:49:05;6;6;
73517;PMS5003;61766;60.318;25.044;2023-07-31T10:51:32;7;7;
73517;PMS5003;61766;60.318;25.044;2023-07-31T10:56:22;6;6;
73517;PMS5003;61766;60.318;25.044;2023-07-31T10:58:48;6;6;
73517;PMS5003;61766;60.318;25.044;2023-07-31T11:01:13;6;5;
73517;PMS5003;61766;60.318;25.044;2023-07-31T11:03:41;6;6;
73517;PMS5003;61766;60.318;25.044;2023-07-31T11:06:05;5;5;
73517;PMS5003;61766;60.318;25.044;2023-07-31T11:08:31;5;5;
73517;PMS5003;61766;60.318;25.044;2023-07-31T11:11:04;7;7;
73517;PMS5003;61766;60.318;25.044;2023-07-31T11:13:22;7;7;
73517;PMS5003;61766;60.318;25.044;2023-07-31T11:15:48;8;8;
73517;PMS5003;61766;60.318;25.044;2023-07-31T11:18:13;6;6;
73517;PMS5003;61766;60.318;25.044;2023-07-31T11:20:39;9;8;
73517;PMS5003;61766;60.318;25.044;2023-07-31T11:23:06;8;7;
73517;PMS5003;61766;60.318;25.044;2023-07-31T11:25:31;9;9;
73517;PMS5003;61766;60.318;25.044;2023-07-31T11:27:56;7;7;
73517;PMS5003;61766;60.318;25.044;2023-07-31T11:30:22;6;6;
73517;PMS5003;61766;60.318;25.044;2023-07-31T11:32:48;7;7;
73517;PMS5003;61766;60.318;25.044;2023-07-31T11:35:13;6;6;
73517;PMS5003;61766;60.318;25.044;2023-07-31T11:37:39;5;5;
73517;PMS5003;61766;60.318;25.044;2023-07-31T11:40:05;6;6;
73517;PMS5003;61766;60.318;25.044;2023-07-31T11:42:30;4;4;
73517;PMS5003;61766;60.318;25.044;2023-07-31T11:44:56;5;5;
73517;PMS5003;61766;60.318;25.044;2023-07-31T11:47:22;7;6;
73517;PMS5003;61766;60.318;25.044;2023-07-31T11:49:47;7;7;
73517;PMS5003;61766;60.318;25.044;2023-07-31T11:52:13;6;6;
73517;PMS5003;61766;60.318;25.044;2023-07-31T11:54:39;6;6;
73517;PMS5003;61766;60.318;25.044;2023-07-31T11:57:05;7;7;
73517;PMS5003;61766;60.318;25.044;2023-07-31T11:59:30;9;9;
73517;PMS5003;61766;60.318;25.044;2023-07-31T12:01:56;7;7;
73517;PMS5003;61766;60.318;25.044;2023-07-31T12:04:21;6;6;
73517;PMS5003;61766;60.318;25.044;2023-07-31T12:06:47;7;7;
73517;PMS5003;61766;60.318;25.044;2023-07-31T12:09:14;6;6;
73517;PMS5003;61766;60.318;25.044;2023-07-31T12:11:44;7;7;
73517;PMS5003;61766;60.318;25.044;2023-07-31T12:14:04;7;7;
73517;PMS5003;61766;60.318;25.044;2023-07-31T12:16:30;6;6;
73517;PMS5003;61766;60.318;25.044;2023-07-31T12:18:56;7;5;
73517;PMS5003;61766;60.318;25.044;2023-07-31T12:21:21;4;4;
73517;PMS5003;61766;60.318;25.044;2023-07-31T12:23:47;7;7;
73517;PMS5003;61766;60.318;25.044;2023-07-31T12:26:13;5;5;
73517;PMS5003;61766;60.318;25.044;2023-07-31T12:28:40;4;4;
73517;PMS5003;61766;60.318;25.044;2023-07-31T12:31:04;5;5;
73517;PMS5003;61766;60.318;25.044;2023-07-31T12:33:30;5;5;
73517;PMS5003;61766;60.318;25.044;2023-07-31T12:35:55;6;6;
73517;PMS5003;61766;60.318;25.044;2023-07-31T12:38:21;5;5;
73517;PMS5003;61766;60.318;25.044;2023-07-31T12:40:47;7;7;
73517;PMS5003;61766;60.318;25.044;2023-07-31T12:43:13;6;6;
73517;PMS5003;61766;60.318;25.044;2023-07-31T12:45:38;7;6;
73517;PMS5003;61766;60.318;25.044;2023-07-31T12:48:04;5;5;
73517;PMS5003;61766;60.318;25.044;2023-07-31T12:50:29;6;6;
73517;PMS5003;61766;60.318;25.044;2023-07-31T12:52:55;5;5;
73517;PMS5003;61766;60.318;25.044;2023-07-31T12:55:21;6;5;
73517;PMS5003;61766;60.318;25.044;2023-07-31T12:57:46;5;5;
73517;PMS5003;61766;60.318;25.044;2023-07-31T13:00:12;4;3;
73517;PMS5003;61766;60.318;25.044;2023-07-31T13:02:38;6;6;
73517;PMS5003;61766;60.318;25.044;2023-07-31T13:05:03;7;6;
73517;PMS5003;61766;60.318;25.044;2023-07-31T13:07:29;5;5;
73517;PMS5003;61766;60.318;25.044;2023-07-31T13:09:55;4;4;
73517;PMS5003;61766;60.318;25.044;2023-07-31T13:12:20;5;4;
73517;PMS5003;61766;60.318;25.044;2023-07-31T13:14:46;4;4;
73517;PMS5003;61766;60.318;25.044;2023-07-31T13:17:12;3;3;
73517;PMS5003;61766;60.318;25.044;2023-07-31T13:19:37;4;4;
73517;PMS5003;61766;60.318;25.044;2023-07-31T13:22:03;4;4;
73517;PMS5003;61766;60.318;25.044;2023-07-31T13:24:29;5;4;
73517;PMS5003;61766;60.318;25.044;2023-07-31T13:26:55;4;4;
73517;PMS5003;61766;60.318;25.044;2023-07-31T13:29:20;5;5;
73517;PMS5003;61766;60.318;25.044;2023-07-31T13:31:46;3;3;
73517;PMS5003;61766;60.318;25.044;2023-07-31T13:34:12;5;5;
73517;PMS5003;61766;60.318;25.044;2023-07-31T13:36:37;5;5;
73517;PMS5003;61766;60.318;25.044;2023-07-31T13:39:03;6;5;
73517;PMS5003;61766;60.318;25.044;2023-07-31T13:41:29;4;3;
73517;PMS5003;61766;60.318;25.044;2023-07-31T13:43:54;4;4;
73517;PMS5003;61766;60.318;25.044;2023-07-31T13:46:20;5;5;
73517;PMS5003;61766;60.318;25.044;2023-07-31T13:48:46;3;3;
73517;PMS5003;61766;60.318;25.044;2023-07-31T13:51:11;3;3;
73517;PMS5003;61766;60.318;25.044;2023-07-31T13:53:37;3;3;
73517;PMS5003;61766;60.318;25.044;2023-07-31T13:56:03;3;3;
73517;PMS5003;61766;60.318;25.044;2023-07-31T13:58:28;5;4;
73517;PMS5003;61766;60.318;25.044;2023-07-31T14:00:54;3;3;
73517;PMS5003;61766;60.318;25.044;2023-07-31T14:03:20;3;3;
73517;PMS5003;61766;60.318;25.044;2023-07-31T14:05:46;3;3;
73517;PMS5003;61766;60.318;25.044;2023-07-31T14:08:11;2;2;
73517;PMS5003;61766;60.318;25.044;2023-07-31T14:10:37;2;2;
73517;PMS5003;61766;60.318;25.044;2023-07-31T14:13:03;3;3;
73517;PMS5003;61766;60.318;25.044;2023-07-31T14:15:28;3;3;
73517;PMS5003;61766;60.318;25.044;2023-07-31T14:17:54;3;3;
73517;PMS5003;61766;60.318;25.044;2023-07-31T14:20:21;3;3;
73517;PMS5003;61766;60.318;25.044;2023-07-31T14:22:45;4;4;
73517;PMS5003;61766;60.318;25.044;2023-07-31T14:25:11;4;4;
73517;PMS5003;61766;60.318;25.044;2023-07-31T14:27:37;2;2;
73517;PMS5003;61766;60.318;25.044;2023-07-31T14:30:03;5;5;
73517;PMS5003;61766;60.318;25.044;2023-07-31T14:32:28;3;3;
73517;PMS5003;61766;60.318;25.044;2023-07-31T14:34:54;3;2;
73517;PMS5003;61766;60.318;25.044;2023-07-31T14:37:19;4;3;
73517;PMS5003;61766;60.318;25.044;2023-07-31T14:39:45;4;4;
73517;PMS5003;61766;60.318;25.044;2023-07-31T14:42:11;3;3;
73517;PMS5003;61766;60.318;25.044;2023-07-31T14:44:36;4;3;
73517;PMS5003;61766;60.318;25.044;2023-07-31T14:47:02;4;4;
73517;PMS5003;61766;60.318;25.044;2023-07-31T14:49:28;2;2;
73517;PMS5003;61766;60.318;25.044;2023-07-31T14:51:54;4;4;
73517;PMS5003;61766;60.318;25.044;2023-07-31T14:54:19;1;1;
73517;PMS5003;61766;60.318;25.044;2023-07-31T14:56:45;3;3;
73517;PMS5003;61766;60.318;25.044;2023-07-31T14:59:10;3;3;
73517;PMS5003;61766;60.318;25.044;2023-07-31T15:01:36;2;2;
73517;PMS5003;61766;60.318;25.044;2023-07-31T15:04:02;3;3;
73517;PMS5003;61766;60.318;25.044;2023-07-31T15:06:28;3;3;
73517;PMS5003;61766;60.318;25.044;2023-07-31T15:08:53;3;3;
73517;PMS5003;61766;60.318;25.044;2023-07-31T15:11:19;5;5;
73517;PMS5003;61766;60.318;25.044;2023-07-31T15:13:45;3;3;
73517;PMS5003;61766;60.318;25.044;2023-07-31T15:16:10;4;4;
73517;PMS5003;61766;60.318;25.044;2023-07-31T15:18:36;5;5;
73517;PMS5003;61766;60.318;25.044;2023-07-31T15:21:02;3;3;
73517;PMS5003;61766;60.318;25.044;2023-07-31T15:23:27;7;5;
73517;PMS5003;61766;60.318;25.044;2023-07-31T15:25:53;4;4;
73517;PMS5003;61766;60.318;25.044;2023-07-31T15:28:19;3;3;
73517;PMS5003;61766;60.318;25.044;2023-07-31T15:30:44;4;4;
73517;PMS5003;61766;60.318;25.044;2023-07-31T15:33:10;5;5;
73517;PMS5003;61766;60.318;25.044;2023-07-31T15:35:36;4;4;
73517;PMS5003;61766;60.318;25.044;2023-07-31T15:38:01;5;5;
73517;PMS5003;61766;60.318;25.044;2023-07-31T15:40:27;2;2;
73517;PMS5003;61766;60.318;25.044;2023-07-31T15:42:53;2;2;
73517;PMS5003;61766;60.318;25.044;2023-07-31T15:45:19;4;4;
73517;PMS5003;61766;60.318;25.044;2023-07-31T15:47:44;4;4;
73517;PMS5003;61766;60.318;25.044;2023-07-31T15:50:10;4;4;
73517;PMS5003;61766;60.318;25.044;2023-07-31T15:52:35;3;3;
73517;PMS5003;61766;60.318;25.044;2023-07-31T15:55:01;5;5;
73517;PMS5003;61766;60.318;25.044;2023-07-31T15:57:27;2;2;
73517;PMS5003;61766;60.318;25.044;2023-07-31T15:59:52;5;5;
73517;PMS5003;61766;60.318;25.044;2023-07-31T16:02:18;4;3;
73517;PMS5003;61766;60.318;25.044;2023-07-31T16:04:44;3;3;
73517;PMS5003;61766;60.318;25.044;2023-07-31T16:07:10;4;4;
73517;PMS5003;61766;60.318;25.044;2023-07-31T16:09:35;4;4;
73517;PMS5003;61766;60.318;25.044;2023-07-31T16:12:01;4;4;
73517;PMS5003;61766;60.318;25.044;2023-07-31T16:14:27;3;3;
73517;PMS5003;61766;60.318;25.044;2023-07-31T16:16:52;5;4;
73517;PMS5003;61766;60.318;25.044;2023-07-31T16:19:18;4;4;
73517;PMS5003;61766;60.318;25.044;2023-07-31T16:21:44;4;4;
73517;PMS5003;61766;60.318;25.044;2023-07-31T16:24:09;4;4;
73517;PMS5003;61766;60.318;25.044;2023-07-31T16:26:35;3;3;